Star Planet — V2OE9 — position and weather

sailwx.info

Track history (hours):
 
Tides and Currents Weather Stations Pressure Air Temp Water Temp Dewpoint Dewpoint Depression Visibility Wind Speed Wind Dir Waves Ship Positions

Star Planet

Last reported at 2018-Feb-22 09:00 UTC. Time now 2018-Feb-22 09:03 UTC.
Position N 33°51' E 131°19'.

Length 132 m; draft 5.4 m.

Type: Cargo ship. MMSI: 304427000.

Date/timePositionNaut miles runAvg speedWind from/ knotsBaromVisibWave heightAir tempDewpointWater temp
2018-Feb-22 09:00N 33°51' E 131°19'713.2
2018-Feb-22 08:30N 33°49' E 131°27'612.9
2018-Feb-22 08:00N 33°48' E 131°34'612.9
2018-Feb-22 07:30N 33°46' E 131°42'612.4
2018-Feb-22 07:00N 33°41' E 131°46'612.5
2018-Feb-22 06:30N 33°36' E 131°50'612.5
2018-Feb-22 06:00N 33°30' E 131°53'612.7
2018-Feb-22 05:30N 33°24' E 131°56'812.5
2018-Feb-22 04:53N 33°18' E 132°01'513.2
2018-Feb-22 04:30N 33°14' E 132°04'21711.9
2018-Feb-21 10:17N 33°47' E 136°22'1313.4
2018-Feb-21 09:19N 33°56' E 136°33'513.4
2018-Feb-21 08:58N 33°59' E 136°37'714.4
2018-Feb-21 08:30N 34°04' E 136°43'2614.6
2018-Feb-21 06:42N 34°25' E 137°01'314.4
2018-Feb-21 06:29N 34°29' E 137°02'713.4
2018-Feb-21 05:58N 34°35' E 136°58'714.2
2018-Feb-21 05:30N 34°39' E 136°52'714.1
2018-Feb-21 05:00N 34°45' E 136°47'714.0
2018-Feb-21 04:30N 34°52' E 136°46'714.1
2018-Feb-21 04:01N 34°59' E 136°46'3 6.0
2018-Feb-21 03:29N 35°02' E 136°48'0 0.0
2018-Feb-21 02:56N 35°02' E 136°48'0 0.0
2018-Feb-21 02:29N 35°02' E 136°48'0 0.0
2018-Feb-21 01:59N 35°02' E 136°48'0 0.0
2018-Feb-21 01:29N 35°02' E 136°48'0 0.0
2018-Feb-21 00:59N 35°02' E 136°48'0 0.0
2018-Feb-21 00:29N 35°02' E 136°48'0 0.0
2018-Feb-20 23:59N 35°02' E 136°48'0 0.0
2018-Feb-20 23:29N 35°02' E 136°48'1 2.1
2018-Feb-20 23:00N 35°01' E 136°48'611.1
2018-Feb-20 22:30N 34°55' E 136°46'815.5
2018-Feb-20 22:00N 34°48' E 136°47'815.2
2018-Feb-20 21:30N 34°41' E 136°50'914.7
2018-Feb-20 20:52N 34°35' E 136°59'514.2
2018-Feb-20 20:30N 34°33' E 137°05'816.4
2018-Feb-20 20:00N 34°33' E 137°15'2215.4
2018-Feb-20 18:36N 34°33' E 137°41'215.5
2018-Feb-20 18:27N 34°33' E 137°44'715.4
2018-Feb-20 18:00N 34°33' E 137°53'815.3
2018-Feb-20 17:27N 34°33' E 138°03'614.3
2018-Feb-20 17:00N 34°33' E 138°11'714.2
2018-Feb-20 16:30N 34°32' E 138°19'714.1
2018-Feb-20 15:59N 34°32' E 138°28'714.4
2018-Feb-20 15:28N 34°33' E 138°37'714.4
2018-Feb-20 15:00N 34°33' E 138°45'713.9
2018-Feb-20 14:30N 34°32' E 138°54'713.0
2018-Feb-20 13:59N 34°36' E 139°01'816.2
2018-Feb-20 13:30N 34°41' E 139°08'815.7
2018-Feb-20 12:59N 34°47' E 139°15'816.4
2018-Feb-20 12:29N 34°52' E 139°22'816.4
2018-Feb-20 12:00N 34°57' E 139°30'816.4
2018-Feb-20 11:30N 35°02' E 139°38'816.1
2018-Feb-20 11:00N 35°08' E 139°45'714.2
2018-Feb-20 10:30N 35°15' E 139°46'612.8
2018-Feb-20 10:00N 35°20' E 139°42'713.0
2018-Feb-20 09:31N 35°27' E 139°43'2 3.0
2018-Feb-20 08:58N 35°28' E 139°42'0 0.1
2018-Feb-20 08:28N 35°28' E 139°42'0 0.1
2018-Feb-20 07:58N 35°28' E 139°42'0 0.1
2018-Feb-20 07:28N 35°28' E 139°42'0 0.0
2018-Feb-20 06:58N 35°28' E 139°42'0 0.0
2018-Feb-20 06:28N 35°28' E 139°42'1 2.5
2018-Feb-20 06:01N 35°27' E 139°43'510.5
2018-Feb-20 05:30N 35°28' E 139°49'5 9.7
2018-Feb-20 05:00N 35°33' E 139°50'4 6.1
2018-Feb-20 04:17N 35°37' E 139°47'0 0.0
2018-Feb-20 03:44N 35°37' E 139°47'0 0.0
2018-Feb-20 03:29N 35°37' E 139°47'0 0.0
2018-Feb-20 02:56N 35°37' E 139°47'0 0.0
2018-Feb-20 02:17N 35°37' E 139°47'0 0.0
2018-Feb-20 01:59N 35°37' E 139°47'0 0.0
2018-Feb-20 01:26N 35°37' E 139°47'0 0.0
2018-Feb-20 00:59N 35°37' E 139°47'0 0.0
2018-Feb-19 23:41N 35°37' E 139°47'0 0.0
2018-Feb-19 23:26N 35°37' E 139°47'0 0.0
2018-Feb-19 22:57N 35°37' E 139°47'1 2.6
2018-Feb-19 22:30N 35°36' E 139°47'3 7.0
2018-Feb-19 22:00N 35°33' E 139°51'5 9.9
2018-Feb-19 21:31N 35°28' E 139°51'612.7
2018-Feb-19 21:01N 35°24' E 139°46'611.8
2018-Feb-19 20:30N 35°18' E 139°45'611.9
2018-Feb-19 20:00N 35°12' E 139°47'611.7
2018-Feb-19 19:30N 35°06' E 139°45'611.5
2018-Feb-19 19:00N 35°01' E 139°42'611.4
2018-Feb-19 18:29N 34°56' E 139°38'611.5
2018-Feb-19 17:59N 34°52' E 139°33'612.1
2018-Feb-19 17:30N 34°50' E 139°27'712.9
2018-Feb-19 16:57N 34°48' E 139°18'713.6
2018-Feb-19 16:26N 34°43' E 139°12'614.7
2018-Feb-19 16:00N 34°39' E 139°07'713.4
2018-Feb-19 15:28N 34°34' E 139°00'613.6
2018-Feb-19 15:00N 34°31' E 138°54'814.1
2018-Feb-19 14:28N 34°30' E 138°45'714.5
2018-Feb-19 14:00N 34°30' E 138°36'814.0
2018-Feb-19 13:28N 34°30' E 138°27'4312.6
2018-Feb-19 10:03N 34°30' E 137°35'111.9
2018-Feb-19 09:58N 34°30' E 137°36'612.1
2018-Feb-19 09:28N 34°30' E 137°43'611.7
2018-Feb-19 08:58N 34°30' E 137°50'2210.9
2018-Feb-19 06:56N 34°32' E 137°24'27811.2
2018-Feb-18 06:08N 33°12' E 132°03'215.1
2018-Feb-18 06:00N 33°13' E 132°02'814.9
2018-Feb-18 05:26N 33°21' E 131°57'614.3
2018-Feb-18 05:00N 33°26' E 131°54'714.2
2018-Feb-18 04:31N 33°33' E 131°50'714.5
2018-Feb-18 04:00N 33°39' E 131°46'713.8
2018-Feb-18 03:31N 33°45' E 131°42'713.4
2018-Feb-18 03:00N 33°47' E 131°34'713.1
2018-Feb-18 02:30N 33°48' E 131°27'612.8
2018-Feb-18 02:00N 33°50' E 131°19'612.5
2018-Feb-18 01:30N 33°51' E 131°12'612.8
2018-Feb-18 01:00N 33°55' E 131°06'612.8
2018-Feb-18 00:31N 33°58' E 130°59'611.1
2018-Feb-18 00:01N 33°54' E 130°54'713.5
2018-Feb-17 23:30N 34°00' E 130°50'713.8
2018-Feb-17 23:00N 34°03' E 130°42'815.1
2018-Feb-17 22:31N 34°02' E 130°33'815.2
2018-Feb-17 22:00N 34°02' E 130°24'815.3
2018-Feb-17 21:30N 34°01' E 130°15'815.2
2018-Feb-17 21:00N 34°01' E 130°06'815.4
2018-Feb-17 20:31N 34°01' E 129°57'  
Track history (hours):
 
Tides and Currents Weather Stations Pressure Air Temp Water Temp Dewpoint Dewpoint Depression Visibility Wind Speed Wind Dir Waves Ship Positions

Star Planet

Last reported at 2018-Feb-22 09:00 UTC. Time now 2018-Feb-22 09:03 UTC.
Position N 33°51' E 131°19'.

Length 132 m; draft 5.4 m.

Type: Cargo ship. MMSI: 304427000.

Date/timePositionNaut miles runAvg speedWind from/ knotsBaromVisibWave heightAir tempDewpointWater temp
2018-Feb-22 09:00N 33°51' E 131°19'713.2
2018-Feb-22 08:30N 33°49' E 131°27'612.9
2018-Feb-22 08:00N 33°48' E 131°34'612.9
2018-Feb-22 07:30N 33°46' E 131°42'612.4
2018-Feb-22 07:00N 33°41' E 131°46'612.5
2018-Feb-22 06:30N 33°36' E 131°50'612.5
2018-Feb-22 06:00N 33°30' E 131°53'612.7
2018-Feb-22 05:30N 33°24' E 131°56'812.5
2018-Feb-22 04:53N 33°18' E 132°01'513.2
2018-Feb-22 04:30N 33°14' E 132°04'21711.9
2018-Feb-21 10:17N 33°47' E 136°22'1313.4
2018-Feb-21 09:19N 33°56' E 136°33'513.4
2018-Feb-21 08:58N 33°59' E 136°37'714.4
2018-Feb-21 08:30N 34°04' E 136°43'2614.6
2018-Feb-21 06:42N 34°25' E 137°01'314.4
2018-Feb-21 06:29N 34°29' E 137°02'713.4
2018-Feb-21 05:58N 34°35' E 136°58'714.2
2018-Feb-21 05:30N 34°39' E 136°52'714.1
2018-Feb-21 05:00N 34°45' E 136°47'714.0
2018-Feb-21 04:30N 34°52' E 136°46'714.1
2018-Feb-21 04:01N 34°59' E 136°46'3 6.0
2018-Feb-21 03:29N 35°02' E 136°48'0 0.0
2018-Feb-21 02:56N 35°02' E 136°48'0 0.0
2018-Feb-21 02:29N 35°02' E 136°48'0 0.0
2018-Feb-21 01:59N 35°02' E 136°48'0 0.0
2018-Feb-21 01:29N 35°02' E 136°48'0 0.0
2018-Feb-21 00:59N 35°02' E 136°48'0 0.0
2018-Feb-21 00:29N 35°02' E 136°48'0 0.0
2018-Feb-20 23:59N 35°02' E 136°48'0 0.0
2018-Feb-20 23:29N 35°02' E 136°48'1 2.1
2018-Feb-20 23:00N 35°01' E 136°48'611.1
2018-Feb-20 22:30N 34°55' E 136°46'815.5
2018-Feb-20 22:00N 34°48' E 136°47'815.2
2018-Feb-20 21:30N 34°41' E 136°50'914.7
2018-Feb-20 20:52N 34°35' E 136°59'514.2
2018-Feb-20 20:30N 34°33' E 137°05'816.4
2018-Feb-20 20:00N 34°33' E 137°15'2215.4
2018-Feb-20 18:36N 34°33' E 137°41'215.5
2018-Feb-20 18:27N 34°33' E 137°44'715.4
2018-Feb-20 18:00N 34°33' E 137°53'815.3
2018-Feb-20 17:27N 34°33' E 138°03'614.3
2018-Feb-20 17:00N 34°33' E 138°11'714.2
2018-Feb-20 16:30N 34°32' E 138°19'714.1
2018-Feb-20 15:59N 34°32' E 138°28'714.4
2018-Feb-20 15:28N 34°33' E 138°37'714.4
2018-Feb-20 15:00N 34°33' E 138°45'713.9
2018-Feb-20 14:30N 34°32' E 138°54'713.0
2018-Feb-20 13:59N 34°36' E 139°01'816.2
2018-Feb-20 13:30N 34°41' E 139°08'815.7
2018-Feb-20 12:59N 34°47' E 139°15'816.4
2018-Feb-20 12:29N 34°52' E 139°22'816.4
2018-Feb-20 12:00N 34°57' E 139°30'816.4
2018-Feb-20 11:30N 35°02' E 139°38'816.1
2018-Feb-20 11:00N 35°08' E 139°45'714.2
2018-Feb-20 10:30N 35°15' E 139°46'612.8
2018-Feb-20 10:00N 35°20' E 139°42'713.0
2018-Feb-20 09:31N 35°27' E 139°43'2 3.0
2018-Feb-20 08:58N 35°28' E 139°42'0 0.1
2018-Feb-20 08:28N 35°28' E 139°42'0 0.1
2018-Feb-20 07:58N 35°28' E 139°42'0 0.1
2018-Feb-20 07:28N 35°28' E 139°42'0 0.0
2018-Feb-20 06:58N 35°28' E 139°42'0 0.0
2018-Feb-20 06:28N 35°28' E 139°42'1 2.5
2018-Feb-20 06:01N 35°27' E 139°43'510.5
2018-Feb-20 05:30N 35°28' E 139°49'5 9.7
2018-Feb-20 05:00N 35°33' E 139°50'4 6.1
2018-Feb-20 04:17N 35°37' E 139°47'0 0.0
2018-Feb-20 03:44N 35°37' E 139°47'0 0.0
2018-Feb-20 03:29N 35°37' E 139°47'0 0.0
2018-Feb-20 02:56N 35°37' E 139°47'0 0.0
2018-Feb-20 02:17N 35°37' E 139°47'0 0.0
2018-Feb-20 01:59N 35°37' E 139°47'0 0.0
2018-Feb-20 01:26N 35°37' E 139°47'0 0.0
2018-Feb-20 00:59N 35°37' E 139°47'0 0.0
2018-Feb-19 23:41N 35°37' E 139°47'0 0.0
2018-Feb-19 23:26N 35°37' E 139°47'0 0.0
2018-Feb-19 22:57N 35°37' E 139°47'1 2.6
2018-Feb-19 22:30N 35°36' E 139°47'3 7.0
2018-Feb-19 22:00N 35°33' E 139°51'5 9.9
2018-Feb-19 21:31N 35°28' E 139°51'612.7
2018-Feb-19 21:01N 35°24' E 139°46'611.8
2018-Feb-19 20:30N 35°18' E 139°45'611.9
2018-Feb-19 20:00N 35°12' E 139°47'611.7
2018-Feb-19 19:30N 35°06' E 139°45'611.5
2018-Feb-19 19:00N 35°01' E 139°42'611.4
2018-Feb-19 18:29N 34°56' E 139°38'611.5
2018-Feb-19 17:59N 34°52' E 139°33'612.1
2018-Feb-19 17:30N 34°50' E 139°27'712.9
2018-Feb-19 16:57N 34°48' E 139°18'713.6
2018-Feb-19 16:26N 34°43' E 139°12'614.7
2018-Feb-19 16:00N 34°39' E 139°07'713.4
2018-Feb-19 15:28N 34°34' E 139°00'613.6
2018-Feb-19 15:00N 34°31' E 138°54'814.1
2018-Feb-19 14:28N 34°30' E 138°45'714.5
2018-Feb-19 14:00N 34°30' E 138°36'814.0
2018-Feb-19 13:28N 34°30' E 138°27'4312.6
2018-Feb-19 10:03N 34°30' E 137°35'111.9
2018-Feb-19 09:58N 34°30' E 137°36'612.1
2018-Feb-19 09:28N 34°30' E 137°43'611.7
2018-Feb-19 08:58N 34°30' E 137°50'2210.9
2018-Feb-19 06:56N 34°32' E 137°24'27811.2
2018-Feb-18 06:08N 33°12' E 132°03'215.1
2018-Feb-18 06:00N 33°13' E 132°02'814.9
2018-Feb-18 05:26N 33°21' E 131°57'614.3
2018-Feb-18 05:00N 33°26' E 131°54'714.2
2018-Feb-18 04:31N 33°33' E 131°50'714.5
2018-Feb-18 04:00N 33°39' E 131°46'713.8
2018-Feb-18 03:31N 33°45' E 131°42'713.4
2018-Feb-18 03:00N 33°47' E 131°34'713.1
2018-Feb-18 02:30N 33°48' E 131°27'612.8
2018-Feb-18 02:00N 33°50' E 131°19'612.5
2018-Feb-18 01:30N 33°51' E 131°12'612.8
2018-Feb-18 01:00N 33°55' E 131°06'612.8
2018-Feb-18 00:31N 33°58' E 130°59'611.1
2018-Feb-18 00:01N 33°54' E 130°54'713.5
2018-Feb-17 23:30N 34°00' E 130°50'713.8
2018-Feb-17 23:00N 34°03' E 130°42'815.1
2018-Feb-17 22:31N 34°02' E 130°33'815.2
2018-Feb-17 22:00N 34°02' E 130°24'815.3
2018-Feb-17 21:30N 34°01' E 130°15'815.2
2018-Feb-17 21:00N 34°01' E 130°06'815.4
2018-Feb-17 20:31N 34°01' E 129°57'  

Dump ship's entire track history